x

La Perouse Bank (46206) Wave Buoy

6:00 - Mon 16th Jan 2017 All times are PST. -8 hours from GMT.

  • Sig Wave height 12.1ft
  • Peak Period 8s
  • Wind
    27mph, 34mph gusts
  • Sea Temp 51°f
  • Luft Temp 48°f
  • Sea Pressure 1009.7mb
  • La Perouse Bank
  • La Perouse Bank

More Historic Weather Station data

Upgrade to MSW Pro to gain access to the past 30 days of data for over 8000 Wavebouys and Weather Stations around the globe.

Join Pro

Comparision Forecast

View Surf forecast
   
Mo 01/16 6:00 12ft 8s 27 34 mph 1009.7mb 51f 48f
5:00 12ft 8s 27 34 mph 1010.7mb 51f 46f
4:00 12.5ft 7s 25 31 mph 1011.6mb 54f 46f
3:00 12ft 6s 27 31 mph 1012mb 53f 45f
2:00 11ft 6s 29 36 mph 1011.4mb 54f 46f
1:00 10.5ft 6s 31 38 mph 1011.9mb 52f 45f
11:00 10ft 14s 29 36 mph 1015.5mb 53f 46f
10:00 9ft 6s 29
mph
1016.5mb 53f 46f
9:00 9ft 14s 29 36 mph 1017.1mb 53f 46f
8:00 8ft 14s 25 29 mph 1017.7mb 52f 46f
7:00 8ft 15s 27 31 mph 1018.6mb 51f 45f
6:00 8ft 15s 25 31 mph 1018.9mb 53f 46f
5:00 8ft 14s 22 29 mph 1020.3mb 52f 45f
4:00 8ft 14s 25 29 mph 1020.5mb 53f 45f
3:00 8ft 15s 22 27 mph 1021.4mb 53f 46f
2:00  -   -  25
mph
- - -
1:00 8.5ft 15s 22 27 mph 1022.4mb 56f 46f
12:00 10ft 14s 20 27 mph 1023.1mb 52f 45f
So 01/15 11:00 9ft 13s 22 27 mph 1023.5mb 54f 46f
10:00 9.5ft 16s 22 27 mph 1023.7mb 55f 46f
9:00 9ft 16s 20 27 mph 1023.7mb 50f 45f
8:00 9ft 15s 20 27 mph 1023.7mb 54f 46f
7:00 9ft 16s 18 22 mph 1024mb 54f 45f
6:00 8.5ft 17s 16 20 mph 1023.9mb 51f 45f
5:00 10ft 16s 13 18 mph 1024.2mb 53f 45f
4:00 9ft 17s 16 18 mph 1023.9mb 53f 45f
3:00 8ft 17s 16 20 mph 1024mb 52f 45f
2:00 8ft 12s 16 20 mph 1023.9mb 53f 45f
1:00 8ft 17s 13 18 mph 1024.4mb 55f 45f
12:00 7.5ft 12s 16 18 mph 1025.1mb 53f 45f
11:00 7.5ft 12s 13 18 mph 1025.9mb 52f 44f
10:00 8ft 10s 16 20 mph 1025.3mb 53f 44f
9:00 7.5ft 10s 16 18 mph 1025.2mb 53f 44f
8:00 7ft 10s 13 18 mph 1025mb 53f 44f
7:00 7.5ft 10s 13 18 mph 1025mb 50f 44f
6:00 7ft 10s 13 18 mph 1024.9mb 51f 44f
5:00 7ft 10s 13 16 mph 1024.7mb 53f 43f
4:00 6.5ft 10s 11 16 mph 1025.4mb 51f 44f
3:00 7ft 11s 13 16 mph 1025mb 51f 44f
2:00 7ft 10s 11 16 mph 1024.9mb 51f 44f
1:00 6.5ft 10s 13 18 mph 1024.8mb 52f 44f
12:00 6.5ft 10s 9 13 mph 1025.6mb 50f 44f
Sa 01/14 11:00 7ft 10s 11 16 mph 1025.8mb 51f 44f
10:00 7ft 10s 18 20 mph 1024.4mb 52f 44f
9:00 7ft 11s 13 18 mph 1024.6mb 51f 44f
8:00 8ft 10s 13 18 mph 1024.8mb 56f 44f
7:00 8ft 10s 16 18 mph 1025mb 52f 44f
6:00 7ft 10s 16 18 mph 1025.1mb 51f 44f
5:00 8ft 11s 18 20 mph 1024.9mb 58f 44f
4:00 8ft 11s 18 22 mph 1024.8mb 50f 44f
3:00 7.5ft 11s 16 20 mph 1025.2mb 50f 44f
2:00 7.5ft 12s 18 22 mph 1024.7mb 54f 44f
12:00 6.5ft 12s 22 27 mph 1025.9mb 53f 43f
11:00 6.5ft 12s 22 27 mph 1026.9mb 52f 43f
10:00 6ft 13s 20 25 mph 1027.9mb 55f 42f
9:00 6ft 8s 20 25 mph 1027.7mb 54f 43f
8:00 5.5ft 5s 20 22 mph 1028mb 51f 42f
7:00 5ft 5s 20 22 mph 1028mb 50f 41f
6:00 4.5ft 5s 16 18 mph 1028mb 51f 41f
5:00 4ft 5s 16 18 mph 1028.7mb 53f 41f
4:00 4ft 13s 18 20 mph 1029.1mb 55f 41f
3:00 4ft 14s 16 20 mph 1029.7mb 50f 41f
2:00 3.5ft 14s 13 16 mph 1029.9mb 51f 41f
1:00 3.5ft 9s 18 20 mph 1028.8mb 52f 41f
12:00 3.5ft 10s 13 18 mph 1029.4mb 50f 41f
Fr 01/13 11:00 3.5ft 10s 13 16 mph 1030.1mb 50f 42f
10:00 3.5ft 10s 13 18 mph 1029.9mb 53f 42f
9:00 3.5ft 14s 13 16 mph 1030.2mb 51f 42f
8:00 4ft 10s 18 20 mph 1030.1mb 50f 42f
7:00 4ft 10s 18 20 mph 1030.3mb 52f 42f
6:00 4.5ft 4s 18 20 mph 1030.2mb 54f 42f
5:00 4.5ft 10s 18 20 mph 1030mb 51f 42f
4:00 4.5ft 10s 18 20 mph 1030mb 56f 42f
3:00 4.5ft 11s 18 20 mph 1029.6mb 51f 42f
2:00 4.5ft 10s 18 20 mph 1029.3mb 52f 41f
1:00 4.5ft 11s 16 22 mph 1029.6mb 55f 41f
12:00 4.5ft 11s 18 20 mph 1029.9mb 55f 41f
11:00 4.5ft 11s 18 22 mph 1030mb 53f 41f
10:00 4.5ft 11s 18 20 mph 1030.2mb 52f 41f
9:00 4.5ft 11s 20 22 mph 1029.4mb 55f 41f
8:00 4.5ft 11s 18 22 mph 1028.9mb 53f 41f
7:00 4.5ft 12s 18 22 mph 1028.6mb 55f 41f
6:00 4.5ft 11s 18 25 mph 1028.6mb 53f 41f